sensor_id;sensor_type;location;lat;lon;timestamp;P1;durP1;ratioP1;P2;durP2;ratioP2
72761;SDS011;60886;55.034;73.150;2023-06-10T00:00:59;14.88;;;6.45;;
72761;SDS011;60886;55.034;73.150;2023-06-10T00:04:06;12.00;;;6.10;;
72761;SDS011;60886;55.034;73.150;2023-06-10T00:07:08;12.25;;;6.00;;
72761;SDS011;60886;55.034;73.150;2023-06-10T00:10:11;11.65;;;5.40;;
72761;SDS011;60886;55.034;73.150;2023-06-10T00:13:12;14.38;;;5.60;;
72761;SDS011;60886;55.034;73.150;2023-06-10T00:16:14;12.43;;;5.90;;
72761;SDS011;60886;55.034;73.150;2023-06-10T00:19:15;12.65;;;5.93;;
72761;SDS011;60886;55.034;73.150;2023-06-10T00:22:17;12.00;;;6.22;;
72761;SDS011;60886;55.034;73.150;2023-06-10T00:25:18;17.50;;;7.35;;
72761;SDS011;60886;55.034;73.150;2023-06-10T00:28:21;14.15;;;6.60;;
72761;SDS011;60886;55.034;73.150;2023-06-10T00:31:23;15.30;;;6.67;;
72761;SDS011;60886;55.034;73.150;2023-06-10T00:34:25;12.60;;;5.72;;
72761;SDS011;60886;55.034;73.150;2023-06-10T00:37:26;10.15;;;5.07;;
72761;SDS011;60886;55.034;73.150;2023-06-10T00:40:29;10.02;;;5.15;;
72761;SDS011;60886;55.034;73.150;2023-06-10T00:43:33;14.38;;;5.68;;
72761;SDS011;60886;55.034;73.150;2023-06-10T00:46:34;11.15;;;5.32;;
72761;SDS011;60886;55.034;73.150;2023-06-10T00:49:38;11.50;;;5.30;;
72761;SDS011;60886;55.034;73.150;2023-06-10T00:52:41;12.00;;;5.05;;
72761;SDS011;60886;55.034;73.150;2023-06-10T00:55:45;12.63;;;4.50;;
72761;SDS011;60886;55.034;73.150;2023-06-10T00:58:47;13.75;;;5.00;;
72761;SDS011;60886;55.034;73.150;2023-06-10T01:01:49;10.23;;;4.97;;
72761;SDS011;60886;55.034;73.150;2023-06-10T01:04:50;11.50;;;4.75;;
72761;SDS011;60886;55.034;73.150;2023-06-10T01:08:01;8.80;;;4.50;;
72761;SDS011;60886;55.034;73.150;2023-06-10T01:11:08;11.77;;;4.90;;
72761;SDS011;60886;55.034;73.150;2023-06-10T01:14:21;11.10;;;5.00;;
72761;SDS011;60886;55.034;73.150;2023-06-10T01:17:24;13.13;;;4.63;;
72761;SDS011;60886;55.034;73.150;2023-06-10T01:20:28;11.40;;;5.77;;
72761;SDS011;60886;55.034;73.150;2023-06-10T01:23:33;11.32;;;5.10;;
72761;SDS011;60886;55.034;73.150;2023-06-10T01:26:34;11.05;;;5.80;;
72761;SDS011;60886;55.034;73.150;2023-06-10T01:29:37;14.15;;;6.50;;
72761;SDS011;60886;55.034;73.150;2023-06-10T01:33:07;12.05;;;6.07;;
72761;SDS011;60886;55.034;73.150;2023-06-10T01:36:12;12.73;;;6.57;;
72761;SDS011;60886;55.034;73.150;2023-06-10T01:39:17;11.93;;;5.53;;
72761;SDS011;60886;55.034;73.150;2023-06-10T01:42:21;12.88;;;5.45;;
72761;SDS011;60886;55.034;73.150;2023-06-10T01:45:24;12.07;;;5.68;;
72761;SDS011;60886;55.034;73.150;2023-06-10T01:48:26;9.93;;;4.73;;
72761;SDS011;60886;55.034;73.150;2023-06-10T01:51:28;9.93;;;5.03;;
72761;SDS011;60886;55.034;73.150;2023-06-10T01:54:30;11.95;;;4.88;;
72761;SDS011;60886;55.034;73.150;2023-06-10T01:57:32;10.63;;;5.00;;
72761;SDS011;60886;55.034;73.150;2023-06-10T02:00:33;10.23;;;4.80;;
72761;SDS011;60886;55.034;73.150;2023-06-10T02:03:36;9.30;;;5.20;;
72761;SDS011;60886;55.034;73.150;2023-06-10T02:06:38;10.27;;;5.00;;
72761;SDS011;60886;55.034;73.150;2023-06-10T02:09:39;11.55;;;5.60;;
72761;SDS011;60886;55.034;73.150;2023-06-10T02:12:41;13.32;;;6.20;;
72761;SDS011;60886;55.034;73.150;2023-06-10T02:15:43;11.90;;;5.40;;
72761;SDS011;60886;55.034;73.150;2023-06-10T02:18:44;13.55;;;6.28;;
72761;SDS011;60886;55.034;73.150;2023-06-10T02:21:47;11.53;;;6.13;;
72761;SDS011;60886;55.034;73.150;2023-06-10T02:24:49;16.47;;;6.40;;
72761;SDS011;60886;55.034;73.150;2023-06-10T02:27:50;11.40;;;6.32;;
72761;SDS011;60886;55.034;73.150;2023-06-10T02:30:52;13.63;;;6.30;;
72761;SDS011;60886;55.034;73.150;2023-06-10T02:33:55;14.38;;;6.45;;
72761;SDS011;60886;55.034;73.150;2023-06-10T02:36:57;13.10;;;6.80;;
72761;SDS011;60886;55.034;73.150;2023-06-10T02:39:59;14.73;;;6.77;;
72761;SDS011;60886;55.034;73.150;2023-06-10T02:43:02;14.73;;;7.10;;
72761;SDS011;60886;55.034;73.150;2023-06-10T02:46:04;17.10;;;7.70;;
72761;SDS011;60886;55.034;73.150;2023-06-10T02:49:06;18.77;;;6.82;;
72761;SDS011;60886;55.034;73.150;2023-06-10T02:52:09;16.80;;;7.25;;
72761;SDS011;60886;55.034;73.150;2023-06-10T02:55:12;13.23;;;7.70;;
72761;SDS011;60886;55.034;73.150;2023-06-10T02:58:18;14.90;;;7.17;;
72761;SDS011;60886;55.034;73.150;2023-06-10T03:01:19;13.73;;;6.80;;
72761;SDS011;60886;55.034;73.150;2023-06-10T03:04:32;16.30;;;7.50;;
72761;SDS011;60886;55.034;73.150;2023-06-10T03:07:40;14.93;;;7.00;;
72761;SDS011;60886;55.034;73.150;2023-06-10T03:10:42;14.52;;;7.18;;
72761;SDS011;60886;55.034;73.150;2023-06-10T03:13:46;11.95;;;6.47;;
72761;SDS011;60886;55.034;73.150;2023-06-10T03:16:51;12.52;;;6.70;;
72761;SDS011;60886;55.034;73.150;2023-06-10T03:19:54;16.00;;;8.70;;
72761;SDS011;60886;55.034;73.150;2023-06-10T03:22:58;13.07;;;7.38;;
72761;SDS011;60886;55.034;73.150;2023-06-10T03:25:59;13.83;;;7.07;;
72761;SDS011;60886;55.034;73.150;2023-06-10T03:29:06;14.23;;;6.53;;
72761;SDS011;60886;55.034;73.150;2023-06-10T03:32:08;12.93;;;6.37;;
72761;SDS011;60886;55.034;73.150;2023-06-10T03:35:11;15.83;;;7.03;;
72761;SDS011;60886;55.034;73.150;2023-06-10T03:38:13;14.45;;;6.10;;
72761;SDS011;60886;55.034;73.150;2023-06-10T03:41:15;14.95;;;6.60;;
72761;SDS011;60886;55.034;73.150;2023-06-10T03:44:18;13.30;;;7.10;;
72761;SDS011;60886;55.034;73.150;2023-06-10T03:47:20;14.23;;;6.57;;
72761;SDS011;60886;55.034;73.150;2023-06-10T03:50:22;17.37;;;6.93;;
72761;SDS011;60886;55.034;73.150;2023-06-10T03:53:25;15.93;;;6.97;;
72761;SDS011;60886;55.034;73.150;2023-06-10T03:56:26;13.93;;;7.72;;
72761;SDS011;60886;55.034;73.150;2023-06-10T03:59:29;13.65;;;6.40;;
72761;SDS011;60886;55.034;73.150;2023-06-10T04:02:30;12.15;;;5.60;;
72761;SDS011;60886;55.034;73.150;2023-06-10T04:05:34;10.47;;;5.03;;
72761;SDS011;60886;55.034;73.150;2023-06-10T04:08:37;11.80;;;5.40;;
72761;SDS011;60886;55.034;73.150;2023-06-10T04:11:40;12.80;;;5.63;;
72761;SDS011;60886;55.034;73.150;2023-06-10T04:14:42;11.90;;;6.30;;
72761;SDS011;60886;55.034;73.150;2023-06-10T04:17:45;13.30;;;6.32;;
72761;SDS011;60886;55.034;73.150;2023-06-10T04:20:47;14.60;;;5.80;;
72761;SDS011;60886;55.034;73.150;2023-06-10T04:23:49;9.43;;;5.10;;
72761;SDS011;60886;55.034;73.150;2023-06-10T04:26:51;10.15;;;5.25;;
72761;SDS011;60886;55.034;73.150;2023-06-10T04:29:53;11.33;;;5.00;;
72761;SDS011;60886;55.034;73.150;2023-06-10T04:32:54;10.93;;;4.00;;
72761;SDS011;60886;55.034;73.150;2023-06-10T04:35:56;11.10;;;5.30;;
72761;SDS011;60886;55.034;73.150;2023-06-10T04:39:06;9.84;;;3.80;;
72761;SDS011;60886;55.034;73.150;2023-06-10T04:42:09;8.00;;;3.60;;
72761;SDS011;60886;55.034;73.150;2023-06-10T04:45:11;8.97;;;3.97;;
72761;SDS011;60886;55.034;73.150;2023-06-10T04:48:14;10.38;;;4.70;;
72761;SDS011;60886;55.034;73.150;2023-06-10T04:51:15;11.43;;;5.13;;
72761;SDS011;60886;55.034;73.150;2023-06-10T04:54:17;10.73;;;4.32;;
72761;SDS011;60886;55.034;73.150;2023-06-10T04:57:19;10.52;;;4.82;;
72761;SDS011;60886;55.034;73.150;2023-06-10T05:00:21;9.77;;;4.77;;
72761;SDS011;60886;55.034;73.150;2023-06-10T05:03:23;10.63;;;5.05;;
72761;SDS011;60886;55.034;73.150;2023-06-10T05:06:24;11.80;;;5.33;;
72761;SDS011;60886;55.034;73.150;2023-06-10T05:09:26;9.93;;;5.00;;
72761;SDS011;60886;55.034;73.150;2023-06-10T05:12:27;10.63;;;4.40;;
72761;SDS011;60886;55.034;73.150;2023-06-10T05:15:32;10.30;;;4.80;;
72761;SDS011;60886;55.034;73.150;2023-06-10T05:18:34;11.57;;;4.88;;
72761;SDS011;60886;55.034;73.150;2023-06-10T05:21:36;11.23;;;5.00;;
72761;SDS011;60886;55.034;73.150;2023-06-10T05:24:37;11.50;;;5.37;;
72761;SDS011;60886;55.034;73.150;2023-06-10T05:27:40;9.05;;;4.70;;
72761;SDS011;60886;55.034;73.150;2023-06-10T05:30:43;10.10;;;4.97;;
72761;SDS011;60886;55.034;73.150;2023-06-10T05:33:44;10.93;;;4.97;;
72761;SDS011;60886;55.034;73.150;2023-06-10T05:36:46;10.63;;;4.70;;
72761;SDS011;60886;55.034;73.150;2023-06-10T05:39:47;12.18;;;4.47;;
72761;SDS011;60886;55.034;73.150;2023-06-10T05:42:49;9.35;;;4.30;;
72761;SDS011;60886;55.034;73.150;2023-06-10T05:45:51;14.00;;;4.67;;
72761;SDS011;60886;55.034;73.150;2023-06-10T05:48:52;8.82;;;4.53;;
72761;SDS011;60886;55.034;73.150;2023-06-10T05:51:54;10.52;;;4.00;;
72761;SDS011;60886;55.034;73.150;2023-06-10T05:54:57;12.47;;;4.17;;
72761;SDS011;60886;55.034;73.150;2023-06-10T05:58:00;8.75;;;3.78;;
72761;SDS011;60886;55.034;73.150;2023-06-10T06:01:02;9.73;;;4.17;;
72761;SDS011;60886;55.034;73.150;2023-06-10T06:04:06;9.20;;;4.22;;
72761;SDS011;60886;55.034;73.150;2023-06-10T06:07:08;9.70;;;4.18;;
72761;SDS011;60886;55.034;73.150;2023-06-10T06:10:10;10.80;;;4.30;;
72761;SDS011;60886;55.034;73.150;2023-06-10T06:13:11;11.32;;;4.10;;
72761;SDS011;60886;55.034;73.150;2023-06-10T06:16:13;9.88;;;4.28;;
72761;SDS011;60886;55.034;73.150;2023-06-10T06:19:14;10.13;;;4.27;;
72761;SDS011;60886;55.034;73.150;2023-06-10T06:22:16;11.43;;;4.35;;
72761;SDS011;60886;55.034;73.150;2023-06-10T06:25:22;9.55;;;4.40;;
72761;SDS011;60886;55.034;73.150;2023-06-10T06:28:24;10.03;;;4.27;;
72761;SDS011;60886;55.034;73.150;2023-06-10T06:31:30;8.93;;;4.22;;
72761;SDS011;60886;55.034;73.150;2023-06-10T06:34:32;9.30;;;3.93;;
72761;SDS011;60886;55.034;73.150;2023-06-10T06:37:35;9.82;;;4.00;;
72761;SDS011;60886;55.034;73.150;2023-06-10T06:40:59;8.73;;;4.18;;
72761;SDS011;60886;55.034;73.150;2023-06-10T06:44:06;8.88;;;4.13;;
72761;SDS011;60886;55.034;73.150;2023-06-10T06:47:13;9.87;;;4.23;;
72761;SDS011;60886;55.034;73.150;2023-06-10T06:50:14;8.73;;;3.75;;
72761;SDS011;60886;55.034;73.150;2023-06-10T06:53:17;9.23;;;3.88;;
72761;SDS011;60886;55.034;73.150;2023-06-10T06:56:18;7.37;;;3.80;;
72761;SDS011;60886;55.034;73.150;2023-06-10T06:59:21;7.55;;;3.55;;
72761;SDS011;60886;55.034;73.150;2023-06-10T07:02:23;8.60;;;4.00;;
72761;SDS011;60886;55.034;73.150;2023-06-10T07:05:25;9.52;;;3.63;;
72761;SDS011;60886;55.034;73.150;2023-06-10T07:08:28;7.80;;;3.43;;
72761;SDS011;60886;55.034;73.150;2023-06-10T07:11:30;8.60;;;3.80;;
72761;SDS011;60886;55.034;73.150;2023-06-10T07:14:31;8.07;;;3.70;;
72761;SDS011;60886;55.034;73.150;2023-06-10T07:17:32;7.82;;;3.22;;
72761;SDS011;60886;55.034;73.150;2023-06-10T07:20:35;7.57;;;3.33;;
72761;SDS011;60886;55.034;73.150;2023-06-10T07:23:37;6.93;;;3.45;;
72761;SDS011;60886;55.034;73.150;2023-06-10T07:26:42;8.55;;;3.90;;
72761;SDS011;60886;55.034;73.150;2023-06-10T07:29:44;8.53;;;4.00;;
72761;SDS011;60886;55.034;73.150;2023-06-10T07:32:45;7.78;;;3.63;;
72761;SDS011;60886;55.034;73.150;2023-06-10T07:35:47;8.67;;;4.20;;
72761;SDS011;60886;55.034;73.150;2023-06-10T07:38:49;9.10;;;4.28;;
72761;SDS011;60886;55.034;73.150;2023-06-10T07:41:51;12.43;;;3.90;;
72761;SDS011;60886;55.034;73.150;2023-06-10T07:44:54;9.90;;;4.10;;
72761;SDS011;60886;55.034;73.150;2023-06-10T07:47:56;7.45;;;4.03;;
72761;SDS011;60886;55.034;73.150;2023-06-10T07:50:57;9.87;;;4.10;;
72761;SDS011;60886;55.034;73.150;2023-06-10T07:54:06;10.74;;;3.96;;
72761;SDS011;60886;55.034;73.150;2023-06-10T07:57:08;10.02;;;3.80;;
72761;SDS011;60886;55.034;73.150;2023-06-10T08:00:09;15.30;;;4.40;;
72761;SDS011;60886;55.034;73.150;2023-06-10T08:03:14;14.60;;;4.40;;
72761;SDS011;60886;55.034;73.150;2023-06-10T08:06:15;11.47;;;4.43;;
72761;SDS011;60886;55.034;73.150;2023-06-10T08:09:18;10.20;;;4.22;;
72761;SDS011;60886;55.034;73.150;2023-06-10T08:12:19;8.10;;;4.05;;
72761;SDS011;60886;55.034;73.150;2023-06-10T08:15:21;9.68;;;3.80;;
72761;SDS011;60886;55.034;73.150;2023-06-10T08:18:23;9.53;;;4.00;;
72761;SDS011;60886;55.034;73.150;2023-06-10T08:21:24;10.60;;;4.10;;
72761;SDS011;60886;55.034;73.150;2023-06-10T08:24:25;9.67;;;4.30;;
72761;SDS011;60886;55.034;73.150;2023-06-10T08:27:27;10.70;;;4.45;;
72761;SDS011;60886;55.034;73.150;2023-06-10T08:30:30;10.27;;;4.20;;
72761;SDS011;60886;55.034;73.150;2023-06-10T08:33:32;9.65;;;4.05;;
72761;SDS011;60886;55.034;73.150;2023-06-10T08:36:36;10.73;;;5.20;;
72761;SDS011;60886;55.034;73.150;2023-06-10T08:39:39;10.77;;;4.70;;
72761;SDS011;60886;55.034;73.150;2023-06-10T08:46:04;8.20;;;4.13;;
72761;SDS011;60886;55.034;73.150;2023-06-10T08:49:10;7.56;;;3.61;;
72761;SDS011;60886;55.034;73.150;2023-06-10T08:52:21;7.82;;;4.03;;
72761;SDS011;60886;55.034;73.150;2023-06-10T08:55:27;8.40;;;4.03;;
72761;SDS011;60886;55.034;73.150;2023-06-10T08:58:34;7.43;;;3.85;;
72761;SDS011;60886;55.034;73.150;2023-06-10T09:01:43;9.03;;;4.03;;
72761;SDS011;60886;55.034;73.150;2023-06-10T09:04:46;8.10;;;3.90;;
72761;SDS011;60886;55.034;73.150;2023-06-10T09:07:48;9.05;;;4.00;;
72761;SDS011;60886;55.034;73.150;2023-06-10T09:10:52;7.73;;;3.77;;
72761;SDS011;60886;55.034;73.150;2023-06-10T09:13:53;8.35;;;3.80;;
72761;SDS011;60886;55.034;73.150;2023-06-10T09:16:55;8.63;;;3.90;;
72761;SDS011;60886;55.034;73.150;2023-06-10T09:19:59;7.22;;;3.70;;
72761;SDS011;60886;55.034;73.150;2023-06-10T09:23:07;10.07;;;3.83;;
72761;SDS011;60886;55.034;73.150;2023-06-10T09:26:09;9.30;;;4.30;;
72761;SDS011;60886;55.034;73.150;2023-06-10T09:29:12;9.23;;;4.03;;
72761;SDS011;60886;55.034;73.150;2023-06-10T09:32:14;8.85;;;4.00;;
72761;SDS011;60886;55.034;73.150;2023-06-10T09:35:16;8.07;;;4.00;;
72761;SDS011;60886;55.034;73.150;2023-06-10T09:38:21;7.53;;;3.80;;
72761;SDS011;60886;55.034;73.150;2023-06-10T09:41:31;8.03;;;3.70;;
72761;SDS011;60886;55.034;73.150;2023-06-10T09:44:34;7.95;;;3.67;;
72761;SDS011;60886;55.034;73.150;2023-06-10T09:47:36;9.45;;;3.55;;
72761;SDS011;60886;55.034;73.150;2023-06-10T09:50:43;8.95;;;3.92;;
72761;SDS011;60886;55.034;73.150;2023-06-10T09:53:52;7.40;;;3.63;;
72761;SDS011;60886;55.034;73.150;2023-06-10T09:56:54;7.78;;;3.95;;
72761;SDS011;60886;55.034;73.150;2023-06-10T09:59:57;9.07;;;5.15;;
72761;SDS011;60886;55.034;73.150;2023-06-10T10:02:59;12.90;;;3.40;;
72761;SDS011;60886;55.034;73.150;2023-06-10T10:06:00;9.18;;;3.42;;
72761;SDS011;60886;55.034;73.150;2023-06-10T10:09:06;9.85;;;3.53;;
72761;SDS011;60886;55.034;73.150;2023-06-10T10:15:12;7.67;;;3.80;;
72761;SDS011;60886;55.034;73.150;2023-06-10T10:18:14;8.38;;;4.00;;
72761;SDS011;60886;55.034;73.150;2023-06-10T10:21:22;9.10;;;3.65;;
72761;SDS011;60886;55.034;73.150;2023-06-10T10:24:33;9.03;;;3.67;;
72761;SDS011;60886;55.034;73.150;2023-06-10T10:27:40;9.57;;;3.55;;
72761;SDS011;60886;55.034;73.150;2023-06-10T10:30:50;8.67;;;3.83;;
72761;SDS011;60886;55.034;73.150;2023-06-10T10:34:00;8.50;;;3.72;;
72761;SDS011;60886;55.034;73.150;2023-06-10T10:37:05;9.15;;;3.83;;
72761;SDS011;60886;55.034;73.150;2023-06-10T10:40:07;7.80;;;3.77;;
72761;SDS011;60886;55.034;73.150;2023-06-10T10:43:09;7.07;;;3.55;;
72761;SDS011;60886;55.034;73.150;2023-06-10T10:46:12;7.90;;;3.90;;
72761;SDS011;60886;55.034;73.150;2023-06-10T10:49:15;8.33;;;3.90;;
72761;SDS011;60886;55.034;73.150;2023-06-10T10:52:18;10.98;;;4.10;;
72761;SDS011;60886;55.034;73.150;2023-06-10T10:55:20;8.43;;;3.80;;
72761;SDS011;60886;55.034;73.150;2023-06-10T10:58:24;9.20;;;3.90;;
72761;SDS011;60886;55.034;73.150;2023-06-10T11:01:26;11.30;;;3.95;;
72761;SDS011;60886;55.034;73.150;2023-06-10T11:04:47;8.27;;;3.40;;
72761;SDS011;60886;55.034;73.150;2023-06-10T11:07:53;7.85;;;3.58;;
72761;SDS011;60886;55.034;73.150;2023-06-10T11:10:58;6.80;;;3.40;;
72761;SDS011;60886;55.034;73.150;2023-06-10T11:14:07;8.72;;;3.83;;
72761;SDS011;60886;55.034;73.150;2023-06-10T11:17:20;9.20;;;4.13;;
72761;SDS011;60886;55.034;73.150;2023-06-10T11:23:46;10.85;;;3.70;;
72761;SDS011;60886;55.034;73.150;2023-06-10T11:26:48;11.50;;;3.55;;
72761;SDS011;60886;55.034;73.150;2023-06-10T11:33:06;7.88;;;3.30;;
72761;SDS011;60886;55.034;73.150;2023-06-10T11:36:08;8.43;;;3.35;;
72761;SDS011;60886;55.034;73.150;2023-06-10T11:39:10;7.94;;;3.06;;
72761;SDS011;60886;55.034;73.150;2023-06-10T11:42:12;10.27;;;3.67;;
72761;SDS011;60886;55.034;73.150;2023-06-10T11:45:14;8.98;;;3.17;;
72761;SDS011;60886;55.034;73.150;2023-06-10T11:48:19;7.47;;;2.95;;
72761;SDS011;60886;55.034;73.150;2023-06-10T11:51:21;7.23;;;3.30;;
72761;SDS011;60886;55.034;73.150;2023-06-10T11:54:23;7.55;;;2.70;;
72761;SDS011;60886;55.034;73.150;2023-06-10T11:57:24;7.95;;;3.70;;
72761;SDS011;60886;55.034;73.150;2023-06-10T12:00:26;7.73;;;3.03;;
72761;SDS011;60886;55.034;73.150;2023-06-10T12:03:35;8.75;;;3.20;;
72761;SDS011;60886;55.034;73.150;2023-06-10T12:06:42;7.85;;;3.10;;
72761;SDS011;60886;55.034;73.150;2023-06-10T12:10:00;8.37;;;3.10;;
72761;SDS011;60886;55.034;73.150;2023-06-10T12:13:01;7.20;;;2.88;;
72761;SDS011;60886;55.034;73.150;2023-06-10T12:16:07;9.43;;;3.13;;
72761;SDS011;60886;55.034;73.150;2023-06-10T12:19:10;16.57;;;9.67;;
72761;SDS011;60886;55.034;73.150;2023-06-10T12:22:11;9.65;;;5.20;;
72761;SDS011;60886;55.034;73.150;2023-06-10T12:25:14;8.52;;;3.30;;
72761;SDS011;60886;55.034;73.150;2023-06-10T12:28:15;7.83;;;2.87;;
72761;SDS011;60886;55.034;73.150;2023-06-10T12:31:18;7.45;;;2.85;;
72761;SDS011;60886;55.034;73.150;2023-06-10T12:34:19;8.80;;;3.13;;
72761;SDS011;60886;55.034;73.150;2023-06-10T12:37:21;9.63;;;3.00;;
72761;SDS011;60886;55.034;73.150;2023-06-10T12:40:29;10.73;;;3.20;;
72761;SDS011;60886;55.034;73.150;2023-06-10T12:43:38;9.57;;;3.50;;
72761;SDS011;60886;55.034;73.150;2023-06-10T12:46:40;7.47;;;2.70;;
72761;SDS011;60886;55.034;73.150;2023-06-10T12:49:42;8.47;;;3.20;;
72761;SDS011;60886;55.034;73.150;2023-06-10T12:52:44;10.63;;;3.20;;
72761;SDS011;60886;55.034;73.150;2023-06-10T12:55:46;11.85;;;3.00;;
72761;SDS011;60886;55.034;73.150;2023-06-10T12:58:48;9.60;;;3.10;;
72761;SDS011;60886;55.034;73.150;2023-06-10T13:01:53;8.45;;;2.70;;
72761;SDS011;60886;55.034;73.150;2023-06-10T13:04:55;6.90;;;2.90;;
72761;SDS011;60886;55.034;73.150;2023-06-10T13:07:57;7.17;;;2.90;;
72761;SDS011;60886;55.034;73.150;2023-06-10T13:10:59;7.38;;;2.83;;
72761;SDS011;60886;55.034;73.150;2023-06-10T13:14:06;9.55;;;3.00;;
72761;SDS011;60886;55.034;73.150;2023-06-10T13:17:08;9.85;;;2.88;;
72761;SDS011;60886;55.034;73.150;2023-06-10T13:20:10;13.85;;;4.40;;
72761;SDS011;60886;55.034;73.150;2023-06-10T13:23:12;9.47;;;3.40;;
72761;SDS011;60886;55.034;73.150;2023-06-10T13:26:14;9.43;;;2.85;;
72761;SDS011;60886;55.034;73.150;2023-06-10T13:29:18;8.50;;;2.97;;
72761;SDS011;60886;55.034;73.150;2023-06-10T13:32:20;11.60;;;2.70;;
72761;SDS011;60886;55.034;73.150;2023-06-10T13:35:22;9.98;;;3.00;;
72761;SDS011;60886;55.034;73.150;2023-06-10T13:38:23;6.83;;;2.37;;
72761;SDS011;60886;55.034;73.150;2023-06-10T13:41:24;9.33;;;2.60;;
72761;SDS011;60886;55.034;73.150;2023-06-10T13:44:28;8.07;;;3.05;;
72761;SDS011;60886;55.034;73.150;2023-06-10T13:47:32;10.00;;;3.50;;
72761;SDS011;60886;55.034;73.150;2023-06-10T13:50:33;11.85;;;4.85;;
72761;SDS011;60886;55.034;73.150;2023-06-10T13:53:35;11.50;;;4.03;;
72761;SDS011;60886;55.034;73.150;2023-06-10T13:56:37;11.60;;;3.23;;
72761;SDS011;60886;55.034;73.150;2023-06-10T13:59:39;7.13;;;2.83;;
72761;SDS011;60886;55.034;73.150;2023-06-10T14:02:41;5.80;;;2.50;;
72761;SDS011;60886;55.034;73.150;2023-06-10T14:05:42;7.37;;;2.40;;
72761;SDS011;60886;55.034;73.150;2023-06-10T14:08:44;8.80;;;2.40;;
72761;SDS011;60886;55.034;73.150;2023-06-10T14:11:46;11.20;;;2.30;;
72761;SDS011;60886;55.034;73.150;2023-06-10T14:14:48;7.35;;;2.70;;
72761;SDS011;60886;55.034;73.150;2023-06-10T14:17:49;10.50;;;3.63;;
72761;SDS011;60886;55.034;73.150;2023-06-10T14:20:51;8.37;;;3.33;;
72761;SDS011;60886;55.034;73.150;2023-06-10T14:23:53;8.75;;;3.70;;
72761;SDS011;60886;55.034;73.150;2023-06-10T14:26:54;9.40;;;2.88;;
72761;SDS011;60886;55.034;73.150;2023-06-10T14:29:56;6.90;;;2.70;;
72761;SDS011;60886;55.034;73.150;2023-06-10T14:32:57;11.07;;;3.15;;
72761;SDS011;60886;55.034;73.150;2023-06-10T14:35:59;11.70;;;3.33;;
72761;SDS011;60886;55.034;73.150;2023-06-10T14:39:06;10.77;;;3.75;;
72761;SDS011;60886;55.034;73.150;2023-06-10T14:42:07;8.95;;;3.80;;
72761;SDS011;60886;55.034;73.150;2023-06-10T14:45:09;9.97;;;4.07;;
72761;SDS011;60886;55.034;73.150;2023-06-10T14:48:11;11.40;;;4.45;;
72761;SDS011;60886;55.034;73.150;2023-06-10T14:51:13;11.38;;;4.60;;
72761;SDS011;60886;55.034;73.150;2023-06-10T14:54:15;14.90;;;4.77;;
72761;SDS011;60886;55.034;73.150;2023-06-10T14:57:17;18.60;;;5.80;;
72761;SDS011;60886;55.034;73.150;2023-06-10T15:00:18;21.73;;;5.00;;
72761;SDS011;60886;55.034;73.150;2023-06-10T15:03:25;12.60;;;4.35;;
72761;SDS011;60886;55.034;73.150;2023-06-10T15:06:26;13.00;;;4.53;;
72761;SDS011;60886;55.034;73.150;2023-06-10T15:09:29;13.00;;;4.95;;
72761;SDS011;60886;55.034;73.150;2023-06-10T15:12:31;11.47;;;4.53;;
72761;SDS011;60886;55.034;73.150;2023-06-10T15:15:32;12.23;;;5.03;;
72761;SDS011;60886;55.034;73.150;2023-06-10T15:18:34;18.77;;;6.60;;
72761;SDS011;60886;55.034;73.150;2023-06-10T15:21:36;23.58;;;7.90;;
72761;SDS011;60886;55.034;73.150;2023-06-10T15:24:38;18.85;;;6.43;;
72761;SDS011;60886;55.034;73.150;2023-06-10T15:27:40;23.90;;;7.80;;
72761;SDS011;60886;55.034;73.150;2023-06-10T15:30:41;20.27;;;8.90;;
72761;SDS011;60886;55.034;73.150;2023-06-10T15:33:43;24.02;;;8.63;;
72761;SDS011;60886;55.034;73.150;2023-06-10T15:36:44;15.50;;;6.35;;
72761;SDS011;60886;55.034;73.150;2023-06-10T15:39:46;16.05;;;5.72;;
72761;SDS011;60886;55.034;73.150;2023-06-10T15:42:47;12.80;;;4.75;;
72761;SDS011;60886;55.034;73.150;2023-06-10T15:45:49;17.05;;;4.10;;
72761;SDS011;60886;55.034;73.150;2023-06-10T15:48:50;17.50;;;4.53;;
72761;SDS011;60886;55.034;73.150;2023-06-10T15:51:54;11.03;;;4.03;;
72761;SDS011;60886;55.034;73.150;2023-06-10T15:54:55;14.53;;;4.13;;
72761;SDS011;60886;55.034;73.150;2023-06-10T15:57:57;19.60;;;6.35;;
72761;SDS011;60886;55.034;73.150;2023-06-10T16:01:00;19.23;;;7.90;;
72761;SDS011;60886;55.034;73.150;2023-06-10T16:04:06;19.50;;;7.70;;
72761;SDS011;60886;55.034;73.150;2023-06-10T16:07:08;20.30;;;10.80;;
72761;SDS011;60886;55.034;73.150;2023-06-10T16:10:09;19.73;;;9.60;;
72761;SDS011;60886;55.034;73.150;2023-06-10T16:13:10;18.73;;;8.93;;
72761;SDS011;60886;55.034;73.150;2023-06-10T16:16:12;17.77;;;9.48;;
72761;SDS011;60886;55.034;73.150;2023-06-10T16:19:13;19.33;;;9.60;;
72761;SDS011;60886;55.034;73.150;2023-06-10T16:22:15;20.33;;;10.40;;
72761;SDS011;60886;55.034;73.150;2023-06-10T16:25:16;23.60;;;11.33;;
72761;SDS011;60886;55.034;73.150;2023-06-10T16:28:18;22.92;;;10.68;;
72761;SDS011;60886;55.034;73.150;2023-06-10T16:31:21;23.77;;;10.33;;
72761;SDS011;60886;55.034;73.150;2023-06-10T16:34:23;18.05;;;10.10;;
72761;SDS011;60886;55.034;73.150;2023-06-10T16:37:24;23.98;;;11.43;;
72761;SDS011;60886;55.034;73.150;2023-06-10T16:40:26;24.73;;;12.82;;
72761;SDS011;60886;55.034;73.150;2023-06-10T16:43:28;22.63;;;10.57;;
72761;SDS011;60886;55.034;73.150;2023-06-10T16:46:29;19.85;;;9.52;;
72761;SDS011;60886;55.034;73.150;2023-06-10T16:49:31;23.13;;;10.00;;
72761;SDS011;60886;55.034;73.150;2023-06-10T16:52:33;18.43;;;9.50;;
72761;SDS011;60886;55.034;73.150;2023-06-10T16:55:35;21.02;;;12.93;;
72761;SDS011;60886;55.034;73.150;2023-06-10T16:58:39;25.13;;;11.60;;
72761;SDS011;60886;55.034;73.150;2023-06-10T17:01:40;23.80;;;12.20;;
72761;SDS011;60886;55.034;73.150;2023-06-10T17:04:42;23.55;;;12.32;;
72761;SDS011;60886;55.034;73.150;2023-06-10T17:07:43;21.80;;;10.80;;
72761;SDS011;60886;55.034;73.150;2023-06-10T17:10:46;21.20;;;10.93;;
72761;SDS011;60886;55.034;73.150;2023-06-10T17:13:47;22.83;;;10.80;;
72761;SDS011;60886;55.034;73.150;2023-06-10T17:16:49;24.25;;;10.85;;
72761;SDS011;60886;55.034;73.150;2023-06-10T17:19:50;27.00;;;10.50;;
72761;SDS011;60886;55.034;73.150;2023-06-10T17:22:52;17.67;;;9.63;;
72761;SDS011;60886;55.034;73.150;2023-06-10T17:25:53;16.80;;;9.10;;
72761;SDS011;60886;55.034;73.150;2023-06-10T17:28:56;16.90;;;8.15;;
72761;SDS011;60886;55.034;73.150;2023-06-10T17:31:57;17.50;;;7.67;;
72761;SDS011;60886;55.034;73.150;2023-06-10T17:34:59;15.00;;;7.07;;
72761;SDS011;60886;55.034;73.150;2023-06-10T17:38:20;26.90;;;6.80;;
72761;SDS011;60886;55.034;73.150;2023-06-10T17:41:28;33.17;;;15.07;;
72761;SDS011;60886;55.034;73.150;2023-06-10T17:44:29;20.47;;;11.03;;
72761;SDS011;60886;55.034;73.150;2023-06-10T17:47:32;15.77;;;6.82;;
72761;SDS011;60886;55.034;73.150;2023-06-10T17:50:33;12.30;;;5.07;;
72761;SDS011;60886;55.034;73.150;2023-06-10T17:53:35;13.98;;;4.82;;
72761;SDS011;60886;55.034;73.150;2023-06-10T17:56:36;9.80;;;4.00;;
72761;SDS011;60886;55.034;73.150;2023-06-10T17:59:38;11.73;;;4.10;;
72761;SDS011;60886;55.034;73.150;2023-06-10T18:02:41;12.60;;;4.32;;
72761;SDS011;60886;55.034;73.150;2023-06-10T18:05:42;9.53;;;3.53;;
72761;SDS011;60886;55.034;73.150;2023-06-10T18:08:44;9.07;;;3.50;;